createdAt,value
2023-03-04T00:00:07.718Z,99629.72
2023-03-04T00:02:33.996Z,99636.25
2023-03-04T00:05:00.220Z,99653.91
2023-03-04T00:07:26.441Z,99661.19
2023-03-04T00:09:52.660Z,99664.66
2023-03-04T00:12:18.870Z,99678.94
2023-03-04T00:14:45.073Z,99670.81
2023-03-04T00:17:11.272Z,99674.97
2023-03-04T00:19:37.508Z,99675.19
2023-03-04T00:22:03.872Z,99668.81
2023-03-04T00:24:30.094Z,99667.22
2023-03-04T00:26:56.284Z,99660.50
2023-03-04T00:29:22.509Z,99659.91
2023-03-04T00:31:48.901Z,99668.16
2023-03-04T00:34:15.167Z,99666.13
2023-03-04T00:36:41.373Z,99677.81
2023-03-04T00:39:07.575Z,99681.53
2023-03-04T00:41:34.071Z,99678.47
2023-03-04T00:44:00.282Z,99676.03
2023-03-04T00:46:26.483Z,99686.34
2023-03-04T00:48:52.708Z,99682.84
2023-03-04T00:51:18.912Z,99692.88
2023-03-04T00:53:45.132Z,99704.56
2023-03-04T00:56:11.322Z,99700.78
2023-03-04T00:58:37.552Z,99697.06
2023-03-04T01:01:03.918Z,99721.31
2023-03-04T01:03:30.156Z,99721.44
2023-03-04T01:05:56.358Z,99725.94
2023-03-04T01:08:22.596Z,99725.94
2023-03-04T01:10:48.866Z,99735.81
2023-03-04T01:13:15.132Z,99746.16
2023-03-04T01:15:41.365Z,99749.50
2023-03-04T01:18:07.595Z,99747.16
2023-03-04T01:20:34.756Z,99756.81
2023-03-04T01:23:00.974Z,99764.88
2023-03-04T01:25:27.184Z,99778.34
2023-03-04T01:27:53.392Z,99786.25
2023-03-04T01:30:19.640Z,99797.63
2023-03-04T01:32:45.848Z,99813.72
2023-03-04T01:35:12.065Z,99825.78
2023-03-04T01:37:38.279Z,99828.16
2023-03-04T01:40:04.637Z,99835.91
2023-03-04T01:42:31.680Z,99846.81
2023-03-04T01:44:57.891Z,99863.66
2023-03-04T01:47:24.299Z,99852.19
2023-03-04T01:49:52.586Z,99847.03
2023-03-04T01:52:18.798Z,99863.88
2023-03-04T01:54:45.024Z,99872.16
2023-03-04T01:57:15.831Z,99880.13
2023-03-04T01:59:42.204Z,99891.41
2023-03-04T02:02:11.394Z,99898.78
2023-03-04T02:04:37.665Z,99901.59
2023-03-04T02:07:03.894Z,99906.00
2023-03-04T02:09:30.286Z,99915.78
2023-03-04T02:11:56.500Z,99915.56
2023-03-04T02:14:22.706Z,99932.44
2023-03-04T02:16:49.077Z,99944.19
2023-03-04T02:19:24.487Z,99932.50
2023-03-04T02:21:50.694Z,99949.53
2023-03-04T02:24:16.871Z,99953.47
2023-03-04T02:26:43.132Z,99945.41
2023-03-04T02:29:09.940Z,99949.59
2023-03-04T02:31:37.154Z,99957.66
2023-03-04T02:34:04.850Z,99977.75
2023-03-04T02:36:31.046Z,99985.72
2023-03-04T02:39:00.947Z,99974.16
2023-03-04T02:41:27.400Z,99970.63
2023-03-04T02:43:53.968Z,99946.00
2023-03-04T02:46:20.220Z,99919.56
2023-03-04T02:48:46.451Z,99909.47
2023-03-04T02:51:12.658Z,99885.19
2023-03-04T02:53:38.884Z,99856.09
2023-03-04T02:56:05.282Z,99820.59
2023-03-04T02:58:31.501Z,99796.66
2023-03-04T03:00:57.711Z,99774.03
2023-03-04T03:03:23.946Z,99751.72
2023-03-04T03:05:50.170Z,99734.66
2023-03-04T03:08:16.373Z,99721.50
2023-03-04T03:10:42.669Z,99692.72
2023-03-04T03:13:08.865Z,99688.91
2023-03-04T03:15:35.140Z,99679.72
2023-03-04T03:18:01.344Z,99664.66
2023-03-04T03:20:27.564Z,99660.63
2023-03-04T03:22:53.795Z,99662.63
2023-03-04T03:25:20.031Z,99650.50
2023-03-04T03:27:46.262Z,99636.47
2023-03-04T03:30:12.981Z,99631.94
2023-03-04T03:32:39.251Z,99648.81
2023-03-04T03:35:05.789Z,99636.09
2023-03-04T03:37:32.019Z,99649.50
2023-03-04T03:39:58.237Z,99669.75
2023-03-04T03:42:24.440Z,99680.94
2023-03-04T03:44:50.644Z,99673.19
2023-03-04T03:47:16.836Z,99686.03
2023-03-04T03:49:43.063Z,99691.66
2023-03-04T03:52:09.309Z,99694.44
2023-03-04T03:54:35.526Z,99685.31
2023-03-04T03:57:01.737Z,99684.34
2023-03-04T03:59:27.954Z,99688.50
2023-03-04T04:01:54.270Z,99707.16
2023-03-04T04:04:20.656Z,99707.50
2023-03-04T04:06:46.846Z,99717.28
2023-03-04T04:09:13.054Z,99798.19
2023-03-04T04:11:39.257Z,99841.34
2023-03-04T04:14:05.524Z,99869.59
2023-03-04T04:16:31.852Z,99881.47
2023-03-04T04:18:58.124Z,99889.88
2023-03-04T04:21:24.336Z,99897.97
2023-03-04T04:23:50.558Z,99900.22
2023-03-04T04:26:16.767Z,99914.94
2023-03-04T04:28:42.973Z,99931.47
2023-03-04T04:31:09.338Z,99939.91
2023-03-04T04:33:35.749Z,100021.78
2023-03-04T04:36:01.973Z,100070.81
2023-03-04T04:38:28.170Z,100137.06
2023-03-04T04:40:56.161Z,100175.03
2023-03-04T04:43:22.371Z,100215.00
2023-03-04T04:45:48.651Z,100242.28
2023-03-04T04:48:14.883Z,100264.13
2023-03-04T04:50:41.112Z,100255.63
2023-03-04T04:53:07.314Z,100272.72
2023-03-04T04:55:33.926Z,100291.81
2023-03-04T04:58:00.135Z,100302.59
2023-03-04T05:00:26.590Z,100309.13
2023-03-04T05:02:52.826Z,100331.84
2023-03-04T05:05:19.057Z,100339.06
2023-03-04T05:07:45.259Z,100334.88
2023-03-04T05:10:11.494Z,100353.22
2023-03-04T05:12:37.713Z,100361.53
2023-03-04T05:15:03.960Z,100380.63
2023-03-04T05:17:30.205Z,100389.34
2023-03-04T05:19:56.426Z,100397.09
2023-03-04T05:22:22.636Z,100405.47
2023-03-04T05:24:48.894Z,100410.44
2023-03-04T05:27:15.138Z,100416.25
2023-03-04T05:29:41.357Z,100418.22
2023-03-04T05:32:07.595Z,100439.31
2023-03-04T05:34:33.847Z,100452.81
2023-03-04T05:37:00.085Z,100479.06
2023-03-04T05:39:26.309Z,100498.53
2023-03-04T05:41:52.528Z,100490.41
2023-03-04T05:44:18.785Z,100508.47
2023-03-04T05:46:45.026Z,100512.44
2023-03-04T05:49:11.261Z,100518.47
2023-03-04T05:51:37.469Z,100520.81
2023-03-04T05:54:03.836Z,100541.09
2023-03-04T05:56:30.053Z,100549.66
2023-03-04T05:58:59.362Z,100570.34
2023-03-04T06:01:25.621Z,100571.69
2023-03-04T06:03:51.879Z,100583.63
2023-03-04T06:06:18.162Z,100594.16
2023-03-04T06:08:44.360Z,100593.13
2023-03-04T06:11:10.583Z,100604.84
2023-03-04T06:13:36.810Z,100607.44
2023-03-04T06:16:03.052Z,100598.47
2023-03-04T06:18:29.408Z,100608.25
2023-03-04T06:20:59.089Z,100604.25
2023-03-04T06:23:25.376Z,100603.88
2023-03-04T06:25:55.435Z,100603.06
2023-03-04T06:28:21.753Z,100605.66
2023-03-04T06:30:48.007Z,100598.09
2023-03-04T06:33:14.221Z,100609.03
2023-03-04T06:35:40.463Z,100604.25
2023-03-04T06:38:06.721Z,100611.63
2023-03-04T06:40:32.957Z,100605.66
2023-03-04T06:42:59.175Z,100622.94
2023-03-04T06:45:25.479Z,100632.47
2023-03-04T06:47:51.754Z,100656.91
2023-03-04T06:50:18.022Z,100664.28
2023-03-04T06:52:44.235Z,100676.19
2023-03-04T06:55:10.445Z,100694.28
2023-03-04T06:57:36.680Z,100697.25
2023-03-04T07:00:03.004Z,100706.97
2023-03-04T07:02:29.219Z,100710.97
2023-03-04T07:04:55.432Z,100720.13
2023-03-04T07:07:21.635Z,100736.44
2023-03-04T07:09:48.842Z,100744.97
2023-03-04T07:12:15.053Z,100748.56
2023-03-04T07:14:41.255Z,100758.91
2023-03-04T07:17:07.477Z,100749.75
2023-03-04T07:19:33.687Z,100775.81
2023-03-04T07:21:59.907Z,100760.69
2023-03-04T07:24:26.110Z,100766.47
2023-03-04T07:26:52.332Z,100760.50
2023-03-04T07:29:18.557Z,100760.91
2023-03-04T07:31:44.816Z,100769.09
2023-03-04T07:34:12.147Z,100769.88
2023-03-04T07:36:38.361Z,100780.03
2023-03-04T07:39:04.664Z,100770.69
2023-03-04T07:41:30.895Z,100765.50
2023-03-04T07:43:57.334Z,100771.47
2023-03-04T07:46:23.550Z,100771.69
2023-03-04T07:48:49.857Z,100775.25
2023-03-04T07:51:20.134Z,100788.19
2023-03-04T07:53:47.425Z,100790.75
2023-03-04T07:56:14.387Z,100787.78
2023-03-04T07:58:40.660Z,100779.06
2023-03-04T08:01:10.795Z,100776.09
2023-03-04T08:03:37.013Z,100755.59
2023-03-04T08:06:07.088Z,100757.78
2023-03-04T08:08:33.358Z,100771.75
2023-03-04T08:10:59.575Z,100766.94
2023-03-04T08:13:26.013Z,100783.09
2023-03-04T08:15:52.288Z,100785.88
2023-03-04T08:18:18.487Z,100790.19
2023-03-04T08:20:44.718Z,100803.16
2023-03-04T08:23:10.911Z,100804.75
2023-03-04T08:25:40.482Z,100819.53
2023-03-04T08:28:06.990Z,100827.69
2023-03-04T08:30:33.212Z,100820.31
2023-03-04T08:32:59.455Z,100821.09
2023-03-04T08:35:25.712Z,100820.31
2023-03-04T08:37:51.913Z,100830.69
2023-03-04T08:40:18.464Z,100830.28
2023-03-04T08:42:44.667Z,100835.63
2023-03-04T08:45:10.927Z,100838.25
2023-03-04T08:47:37.176Z,100842.03
2023-03-04T08:50:03.887Z,100835.25
2023-03-04T08:52:30.199Z,100846.56
2023-03-04T08:54:56.489Z,100834.97
2023-03-04T08:57:22.736Z,100829.63
2023-03-04T08:59:48.953Z,100817.53
2023-03-04T09:02:15.153Z,100814.91
2023-03-04T09:04:41.364Z,100807.78
2023-03-04T09:07:07.604Z,100792.88
2023-03-04T09:09:33.810Z,100787.09
2023-03-04T09:12:00.066Z,100781.31
2023-03-04T09:14:26.285Z,100798.31
2023-03-04T09:16:52.487Z,100785.56
2023-03-04T09:19:18.694Z,100772.63
2023-03-04T09:21:44.930Z,100771.63
2023-03-04T09:24:11.132Z,100796.09
2023-03-04T09:26:37.377Z,100781.16
2023-03-04T09:29:03.651Z,100789.50
2023-03-04T09:31:29.921Z,100816.34
2023-03-04T09:33:56.744Z,100818.72
2023-03-04T09:36:23.024Z,100834.38
2023-03-04T09:38:49.217Z,100844.09
2023-03-04T09:41:19.889Z,100865.00
2023-03-04T09:43:46.331Z,100880.91
2023-03-04T09:46:13.910Z,100884.91
2023-03-04T09:48:43.784Z,100887.84
2023-03-04T09:51:13.118Z,100889.28
2023-03-04T09:53:40.640Z,100898.63
2023-03-04T09:56:06.850Z,100896.66
2023-03-04T09:58:39.483Z,100915.41
2023-03-04T10:01:15.263Z,100919.59
2023-03-04T10:03:51.745Z,100892.66
2023-03-04T10:06:18.938Z,100887.88
2023-03-04T10:08:46.226Z,100903.38
2023-03-04T10:11:17.023Z,100906.38
2023-03-04T10:14:02.210Z,100914.56
2023-03-04T10:16:33.166Z,100903.19
2023-03-04T10:19:01.967Z,100915.91
2023-03-04T10:21:41.936Z,100922.13
2023-03-04T10:24:12.023Z,100936.47
2023-03-04T10:26:38.237Z,100946.88
2023-03-04T10:29:04.430Z,100938.72
2023-03-04T10:31:34.498Z,100935.34
2023-03-04T10:34:00.712Z,100944.75
2023-03-04T10:36:30.026Z,100921.25
2023-03-04T10:39:06.070Z,100895.75
2023-03-04T10:41:32.349Z,100907.75
2023-03-04T10:43:58.635Z,100892.22
2023-03-04T10:46:25.499Z,100872.47
2023-03-04T10:48:52.016Z,100886.47
2023-03-04T10:51:19.225Z,100891.28
2023-03-04T10:53:45.450Z,100892.06
2023-03-04T10:56:30.043Z,100871.75
2023-03-04T10:59:04.291Z,100868.38
2023-03-04T11:01:30.520Z,100872.19
2023-03-04T11:03:56.772Z,100867.44
2023-03-04T11:06:23.113Z,100831.56
2023-03-04T11:08:55.884Z,100832.50
2023-03-04T11:11:23.002Z,100855.41
2023-03-04T11:13:53.060Z,100839.09
2023-03-04T11:16:23.866Z,100897.88
2023-03-04T11:18:50.774Z,100888.94
2023-03-04T11:21:17.638Z,100836.72
2023-03-04T11:23:48.216Z,100836.31
2023-03-04T11:26:37.713Z,100839.69
2023-03-04T11:29:10.100Z,100857.84
2023-03-04T11:31:36.873Z,100853.09
2023-03-04T11:34:04.884Z,100845.09
2023-03-04T11:36:40.818Z,100835.31
2023-03-04T11:39:13.644Z,100839.31
2023-03-04T11:41:40.404Z,100823.38
2023-03-04T11:44:06.684Z,100855.06
2023-03-04T11:46:42.022Z,100875.78
2023-03-04T11:49:43.876Z,100858.63
2023-03-04T11:52:28.591Z,100887.38
2023-03-04T11:55:18.438Z,100794.34
2023-03-04T11:57:51.845Z,100738.56
2023-03-04T12:00:21.104Z,100743.06
2023-03-04T12:03:05.117Z,100673.53
2023-03-04T12:05:52.395Z,100687.44
2023-03-04T12:08:27.991Z,100666.16
2023-03-04T12:11:09.154Z,100669.47
2023-03-04T12:13:54.189Z,100681.06
2023-03-04T12:16:28.093Z,100725.47
2023-03-04T12:19:13.094Z,100741.78
2023-03-04T12:21:39.291Z,100732.03
2023-03-04T12:24:12.445Z,100755.91
2023-03-04T12:26:40.322Z,100787.97
2023-03-04T12:29:15.846Z,100790.75
2023-03-04T12:31:45.564Z,100794.34
2023-03-04T12:34:22.843Z,100805.06
2023-03-04T12:36:49.006Z,100742.81
2023-03-04T12:39:33.341Z,100627.81
2023-03-04T12:42:13.643Z,100599.25
2023-03-04T12:44:45.573Z,100609.94
2023-03-04T12:47:17.806Z,100647.47
2023-03-04T12:49:59.309Z,100605.41
2023-03-04T12:52:25.454Z,100599.50
2023-03-04T12:54:52.205Z,100580.84
2023-03-04T12:57:23.274Z,100462.25
2023-03-04T13:00:08.292Z,100428.19
2023-03-04T13:02:40.401Z,100383.25
2023-03-04T13:05:19.457Z,100415.56
2023-03-04T13:08:04.491Z,100360.94
2023-03-04T13:10:30.713Z,100381.28
2023-03-04T13:12:58.143Z,100268.94
2023-03-04T13:15:24.388Z,100268.44
2023-03-04T13:17:54.683Z,100278.72
2023-03-04T13:20:25.135Z,100238.19
2023-03-04T13:22:58.119Z,100226.19
2023-03-04T13:25:29.302Z,100257.56
2023-03-04T13:28:10.801Z,100289.66
2023-03-04T13:30:36.968Z,100226.72
2023-03-04T13:33:08.914Z,100258.00
2023-03-04T13:35:47.186Z,100244.13
2023-03-04T13:38:22.406Z,100155.53
2023-03-04T13:41:11.073Z,100237.19
2023-03-04T13:43:43.711Z,100166.84
2023-03-04T13:46:19.243Z,100156.56
2023-03-04T13:48:51.510Z,100239.59
2023-03-04T13:51:30.565Z,100287.78
2023-03-04T13:53:59.635Z,100337.94
2023-03-04T13:56:29.723Z,100406.88
2023-03-04T13:59:08.171Z,100391.47
2023-03-04T14:01:37.221Z,100271.63
2023-03-04T14:04:23.166Z,100192.63
2023-03-04T14:06:49.784Z,100147.28
2023-03-04T14:09:16.909Z,100155.31
2023-03-04T14:11:43.129Z,100150.41
2023-03-04T14:14:16.024Z,100141.56
2023-03-04T14:16:46.944Z,99988.97
2023-03-04T14:19:32.231Z,100003.16
2023-03-04T14:21:58.951Z,99874.25
2023-03-04T14:24:25.143Z,99797.63
2023-03-04T14:27:03.176Z,99764.97
2023-03-04T14:29:29.436Z,99833.25
2023-03-04T14:31:55.740Z,99840.25
2023-03-04T14:34:26.596Z,99911.41
2023-03-04T14:36:52.791Z,99772.22
2023-03-04T14:39:19.000Z,99787.50
2023-03-04T14:41:45.295Z,99826.03
2023-03-04T14:44:13.590Z,99855.91
2023-03-04T14:46:40.738Z,99892.28
2023-03-04T14:49:07.104Z,99756.31
2023-03-04T14:51:37.654Z,99777.78
2023-03-04T14:54:03.936Z,99694.38
2023-03-04T14:56:30.911Z,99607.91
2023-03-04T14:58:57.726Z,99614.72
2023-03-04T15:01:33.647Z,99628.00
2023-03-04T15:04:09.611Z,99569.13
2023-03-04T15:06:37.117Z,99583.56
2023-03-04T15:09:06.407Z,99444.34
2023-03-04T15:11:33.355Z,99428.09
2023-03-04T15:13:59.841Z,99313.28
2023-03-04T15:16:27.228Z,99412.72
2023-03-04T15:18:57.730Z,99365.56
2023-03-04T15:21:23.874Z,99303.81
2023-03-04T15:23:50.082Z,99356.09
2023-03-04T15:26:16.292Z,99383.84
2023-03-04T15:28:42.529Z,99454.41
2023-03-04T15:31:19.836Z,99427.59
2023-03-04T15:33:46.076Z,99626.69
2023-03-04T15:36:12.862Z,99691.22
2023-03-04T15:38:39.965Z,99758.69
2023-03-04T15:41:06.158Z,99811.81
2023-03-04T15:43:32.361Z,99888.97
2023-03-04T15:45:58.579Z,99922.00
2023-03-04T15:48:26.603Z,99890.28
2023-03-04T15:50:56.336Z,99893.72
2023-03-04T15:53:25.816Z,99956.59
2023-03-04T15:55:52.032Z,99924.81
2023-03-04T15:58:18.237Z,99831.25
2023-03-04T16:00:44.448Z,99907.72
2023-03-04T16:03:12.944Z,100009.28
2023-03-04T16:05:39.574Z,100002.16
2023-03-04T16:08:05.881Z,99989.88
2023-03-04T16:10:33.237Z,99906.72
2023-03-04T16:12:59.483Z,99772.88
2023-03-04T16:15:26.541Z,99929.03
2023-03-04T16:17:52.783Z,100040.13
2023-03-04T16:20:23.111Z,100158.34
2023-03-04T16:22:50.560Z,100028.50
2023-03-04T16:25:16.915Z,100035.66
2023-03-04T16:27:43.104Z,100148.22
2023-03-04T16:30:13.054Z,100132.00
2023-03-04T16:32:39.309Z,100143.72
2023-03-04T16:35:05.797Z,100181.84
2023-03-04T16:37:32.006Z,100329.94
2023-03-04T16:39:58.804Z,100397.25
2023-03-04T16:42:25.005Z,100368.03
2023-03-04T16:44:51.253Z,100448.63
2023-03-04T16:47:17.469Z,100496.69
2023-03-04T16:49:43.675Z,100510.56
2023-03-04T16:52:14.791Z,100533.78
2023-03-04T16:54:40.997Z,100580.22
2023-03-04T16:57:07.223Z,100629.66
2023-03-04T16:59:33.437Z,100585.53
2023-03-04T17:01:59.697Z,100547.41
2023-03-04T17:04:25.940Z,100465.38
2023-03-04T17:06:52.152Z,100535.22
2023-03-04T17:09:18.364Z,100636.19
2023-03-04T17:11:44.599Z,100516.25
2023-03-04T17:14:10.822Z,100367.28
2023-03-04T17:16:37.041Z,100254.22
2023-03-04T17:19:03.260Z,100188.03
2023-03-04T17:21:29.499Z,100149.78
2023-03-04T17:23:55.724Z,100207.66
2023-03-04T17:26:21.938Z,100159.50
2023-03-04T17:28:51.123Z,100342.72
2023-03-04T17:31:17.972Z,100259.63
2023-03-04T17:33:44.271Z,100516.88
2023-03-04T17:36:11.961Z,100740.97
2023-03-04T17:38:38.511Z,100855.31
2023-03-04T17:41:08.897Z,100910.53
2023-03-04T17:43:35.114Z,100923.00
2023-03-04T17:46:05.020Z,100917.03
2023-03-04T17:48:31.218Z,100944.09
2023-03-04T17:50:57.428Z,100927.19
2023-03-04T17:53:23.636Z,100798.56
2023-03-04T17:55:56.813Z,100837.53
2023-03-04T17:58:23.213Z,100873.44
2023-03-04T18:00:49.714Z,100920.84
2023-03-04T18:03:15.938Z,100936.38
2023-03-04T18:05:42.266Z,100937.81
2023-03-04T18:08:08.502Z,100938.41
2023-03-04T18:10:34.798Z,100925.53
2023-03-04T18:13:01.001Z,100910.84
2023-03-04T18:15:27.216Z,100904.69
2023-03-04T18:17:53.431Z,100903.72
2023-03-04T18:20:19.689Z,100885.41
2023-03-04T18:22:45.909Z,100868.34
2023-03-04T18:25:12.110Z,100864.16
2023-03-04T18:27:41.297Z,100863.97
2023-03-04T18:30:08.052Z,100867.34
2023-03-04T18:32:50.744Z,100860.59
2023-03-04T18:35:17.928Z,100865.56
2023-03-04T18:37:44.215Z,100850.09
2023-03-04T18:40:10.677Z,100843.72
2023-03-04T18:42:36.892Z,100817.84
2023-03-04T18:45:03.891Z,100794.88
2023-03-04T18:47:30.106Z,100765.91
2023-03-04T18:49:56.320Z,100796.41
2023-03-04T18:52:22.527Z,100800.28
2023-03-04T18:54:48.733Z,100814.56
2023-03-04T18:57:14.951Z,100802.66
2023-03-04T18:59:42.652Z,100801.84
2023-03-04T19:02:19.316Z,100794.94
2023-03-04T19:04:45.899Z,100787.94
2023-03-04T19:07:12.119Z,100784.44
2023-03-04T19:09:38.332Z,100781.84
2023-03-04T19:12:04.573Z,100773.69
2023-03-04T19:14:30.773Z,100759.56
2023-03-04T19:16:57.064Z,100746.50
2023-03-04T19:19:23.286Z,100730.16
2023-03-04T19:21:49.495Z,100739.28
2023-03-04T19:24:15.698Z,100740.47
2023-03-04T19:26:41.916Z,100695.56
2023-03-04T19:29:08.122Z,100697.63
2023-03-04T19:31:34.880Z,100719.59
2023-03-04T19:34:01.089Z,100722.44
2023-03-04T19:36:27.309Z,100710.28
2023-03-04T19:38:53.561Z,100694.91
2023-03-04T19:41:19.770Z,100629.16
2023-03-04T19:43:46.013Z,100548.97
2023-03-04T19:46:12.371Z,100498.25
2023-03-04T19:48:38.838Z,100469.19
2023-03-04T19:51:05.276Z,100421.56
2023-03-04T19:53:34.504Z,100390.84
2023-03-04T19:56:00.978Z,100412.06
2023-03-04T19:58:27.182Z,100372.00
2023-03-04T20:00:53.436Z,100377.34
2023-03-04T20:03:19.680Z,100395.78
2023-03-04T20:05:45.922Z,100430.47
2023-03-04T20:08:12.188Z,100481.63
2023-03-04T20:10:38.399Z,100461.75
2023-03-04T20:13:05.152Z,100531.44
2023-03-04T20:15:31.366Z,100573.88
2023-03-04T20:17:57.586Z,100595.88
2023-03-04T20:20:23.787Z,100622.28
2023-03-04T20:22:49.998Z,100604.84
2023-03-04T20:25:16.209Z,100576.63
2023-03-04T20:27:42.431Z,100615.97
2023-03-04T20:30:09.018Z,100665.63
2023-03-04T20:32:35.278Z,100654.13
2023-03-04T20:35:01.522Z,100668.53
2023-03-04T20:37:27.722Z,100671.09
2023-03-04T20:39:53.919Z,100606.91
2023-03-04T20:42:20.139Z,100551.88
2023-03-04T20:44:46.350Z,100499.19
2023-03-04T20:47:12.546Z,100462.34
2023-03-04T20:49:38.785Z,100441.53
2023-03-04T20:52:05.005Z,100450.66
2023-03-04T20:54:31.229Z,100460.78
2023-03-04T20:56:57.442Z,100488.38
2023-03-04T20:59:23.680Z,100482.59
2023-03-04T21:01:49.995Z,100497.44
2023-03-04T21:04:16.416Z,100509.31
2023-03-04T21:06:42.633Z,100525.75
2023-03-04T21:09:09.703Z,100555.47
2023-03-04T21:11:36.160Z,100556.28
2023-03-04T21:14:02.360Z,100575.91
2023-03-04T21:16:28.595Z,100561.88
2023-03-04T21:18:54.899Z,100562.88
2023-03-04T21:21:22.443Z,100528.69
2023-03-04T21:23:52.102Z,100469.63
2023-03-04T21:26:18.480Z,100464.66
2023-03-04T21:28:44.714Z,100486.91
2023-03-04T21:31:20.975Z,100503.72
2023-03-04T21:33:47.207Z,100521.50
2023-03-04T21:36:13.495Z,100540.59
2023-03-04T21:38:40.284Z,100562.97
2023-03-04T21:41:06.513Z,100551.59
2023-03-04T21:43:32.746Z,100548.81
2023-03-04T21:45:58.956Z,100558.09
2023-03-04T21:48:25.200Z,100567.06
2023-03-04T21:50:51.399Z,100540.13
2023-03-04T21:53:17.646Z,100486.50
2023-03-04T21:55:43.867Z,100430.66
2023-03-04T21:58:10.092Z,100373.19
2023-03-04T22:00:37.332Z,100337.75
2023-03-04T22:03:03.570Z,100302.31
2023-03-04T22:05:29.773Z,100227.59
2023-03-04T22:07:55.974Z,100202.47
2023-03-04T22:10:22.185Z,100189.97
2023-03-04T22:12:48.405Z,100141.81
2023-03-04T22:15:14.641Z,100145.56
2023-03-04T22:17:41.037Z,100112.69
2023-03-04T22:20:07.508Z,100090.88
2023-03-04T22:22:33.713Z,100081.38
2023-03-04T22:24:59.964Z,100098.75
2023-03-04T22:27:26.184Z,100087.88
2023-03-04T22:29:52.405Z,100120.16
2023-03-04T22:32:18.649Z,100119.75
2023-03-04T22:34:44.891Z,100109.47
2023-03-04T22:37:11.094Z,100106.88
2023-03-04T22:39:37.300Z,100098.75
2023-03-04T22:42:03.603Z,100114.84
2023-03-04T22:44:29.806Z,100114.84
2023-03-04T22:46:56.001Z,100086.06
2023-03-04T22:49:22.210Z,100069.66
2023-03-04T22:51:48.434Z,100028.44
2023-03-04T22:54:15.078Z,100015.78
2023-03-04T22:56:41.288Z,100015.19
2023-03-04T22:59:07.497Z,100054.94
2023-03-04T23:01:33.734Z,100060.09
2023-03-04T23:03:59.980Z,100031.59
2023-03-04T23:06:26.182Z,100024.06
2023-03-04T23:08:52.405Z,100003.28
2023-03-04T23:11:19.477Z,99972.59
2023-03-04T23:13:45.773Z,99985.03
2023-03-04T23:16:12.091Z,100010.38
2023-03-04T23:18:38.580Z,100006.81
2023-03-04T23:21:08.239Z,100013.16
2023-03-04T23:23:34.532Z,100026.19
2023-03-04T23:26:00.827Z,100015.50
2023-03-04T23:28:27.043Z,100012.91
2023-03-04T23:30:53.414Z,100033.53
2023-03-04T23:33:19.624Z,100006.41
2023-03-04T23:35:45.872Z,99974.72
2023-03-04T23:38:12.089Z,99930.00
2023-03-04T23:40:38.310Z,99892.41
2023-03-04T23:43:04.516Z,99861.72
2023-03-04T23:45:30.744Z,99818.00
2023-03-04T23:47:56.945Z,99798.41
2023-03-04T23:50:23.153Z,99793.06
2023-03-04T23:52:49.369Z,99784.00
2023-03-04T23:55:18.781Z,99797.06
2023-03-04T23:57:44.993Z,99813.63
